createdAt,value
2019-03-29T00:02:17.439Z,4.08
2019-03-29T00:05:31.587Z,4.11
2019-03-29T00:08:45.591Z,4.14
2019-03-29T00:11:59.593Z,4.12
2019-03-29T00:15:13.709Z,4.09
2019-03-29T00:18:28.106Z,3.98
2019-03-29T00:21:42.396Z,3.82
2019-03-29T00:24:56.412Z,3.83
2019-03-29T00:28:11.088Z,3.86
2019-03-29T00:31:25.475Z,3.90
2019-03-29T00:34:39.599Z,3.84
2019-03-29T00:37:55.763Z,3.86
2019-03-29T00:41:09.953Z,3.87
2019-03-29T00:44:23.972Z,3.87
2019-03-29T00:47:38.451Z,3.79
2019-03-29T00:50:52.471Z,3.80
2019-03-29T00:54:06.499Z,3.73
2019-03-29T00:57:20.499Z,3.75
2019-03-29T01:00:34.699Z,3.73
2019-03-29T01:03:48.819Z,3.68
2019-03-29T01:07:02.939Z,3.65
2019-03-29T01:10:17.226Z,3.58
2019-03-29T01:13:31.375Z,3.57
2019-03-29T01:16:45.403Z,3.57
2019-03-29T01:19:59.433Z,3.55
2019-03-29T01:23:13.471Z,3.54
2019-03-29T01:26:27.769Z,3.44
2019-03-29T01:29:42.109Z,3.38
2019-03-29T01:32:56.112Z,3.26
2019-03-29T01:36:10.240Z,3.22
2019-03-29T01:39:24.255Z,3.23
2019-03-29T01:42:38.254Z,3.26
2019-03-29T01:45:52.482Z,3.28
2019-03-29T01:49:06.498Z,3.33
2019-03-29T01:52:20.508Z,3.31
2019-03-29T01:55:34.530Z,3.30
2019-03-29T01:58:48.651Z,3.33
2019-03-29T02:02:03.196Z,3.31
2019-03-29T02:05:17.204Z,3.31
2019-03-29T02:08:35.930Z,3.26
2019-03-29T02:11:47.247Z,3.24
2019-03-29T02:15:01.362Z,3.14
2019-03-29T02:18:15.534Z,3.11
2019-03-29T02:21:29.656Z,3.05
2019-03-29T02:24:43.660Z,3.04
2019-03-29T02:27:57.920Z,3.02
2019-03-29T02:31:12.436Z,2.96
2019-03-29T02:34:26.792Z,2.97
2019-03-29T02:37:40.863Z,2.98
2019-03-29T02:40:54.890Z,2.93
2019-03-29T02:44:09.143Z,2.88
2019-03-29T02:47:23.556Z,2.85
2019-03-29T02:50:38.017Z,2.81
2019-03-29T02:53:52.048Z,2.83
2019-03-29T02:57:06.061Z,2.70
2019-03-29T03:00:20.275Z,2.67
2019-03-29T03:03:34.402Z,2.69
2019-03-29T03:06:48.410Z,2.70
2019-03-29T03:10:03.318Z,2.70
2019-03-29T03:13:17.336Z,2.62
2019-03-29T03:16:31.472Z,2.50
2019-03-29T03:19:45.783Z,2.52
2019-03-29T03:23:00.158Z,2.53
2019-03-29T03:26:14.420Z,2.56
2019-03-29T03:29:28.431Z,2.55
2019-03-29T03:32:42.497Z,2.55
2019-03-29T03:35:56.706Z,2.54
2019-03-29T03:39:10.939Z,2.52
2019-03-29T03:42:25.348Z,2.42
2019-03-29T03:45:39.595Z,2.40
2019-03-29T03:48:53.726Z,2.37
2019-03-29T03:52:07.938Z,2.37
2019-03-29T03:55:22.602Z,2.38
2019-03-29T03:58:37.809Z,2.34
2019-03-29T04:01:52.085Z,2.31
2019-03-29T04:05:06.612Z,2.25
2019-03-29T04:08:20.855Z,2.25
2019-03-29T04:11:35.272Z,2.23
2019-03-29T04:14:49.404Z,2.21
2019-03-29T04:18:03.759Z,2.08
2019-03-29T04:21:18.414Z,2.10
2019-03-29T04:24:32.423Z,2.08
2019-03-29T04:27:46.429Z,2.05
2019-03-29T04:31:00.455Z,2.01
2019-03-29T04:34:14.907Z,1.91
2019-03-29T04:37:28.904Z,1.83
2019-03-29T04:40:42.933Z,1.86
2019-03-29T04:43:56.952Z,1.89
2019-03-29T04:47:10.957Z,1.86
2019-03-29T04:50:24.978Z,1.87
2019-03-29T04:53:39.020Z,1.89
2019-03-29T04:56:53.023Z,1.89
2019-03-29T05:00:07.839Z,1.85
2019-03-29T05:03:21.865Z,1.82
2019-03-29T05:06:35.972Z,1.84
2019-03-29T05:09:49.986Z,1.84
2019-03-29T05:13:04.008Z,1.86
2019-03-29T05:16:18.006Z,1.91
2019-03-29T05:19:32.292Z,1.92
2019-03-29T05:22:47.088Z,1.92
2019-03-29T05:26:01.108Z,1.80
2019-03-29T05:29:15.155Z,1.85
2019-03-29T05:32:29.287Z,1.87
2019-03-29T05:35:43.381Z,1.88
2019-03-29T05:38:57.440Z,1.89
2019-03-29T05:42:11.762Z,1.83
2019-03-29T05:45:26.095Z,1.80
2019-03-29T05:48:40.351Z,1.85
2019-03-29T05:51:54.367Z,1.86
2019-03-29T05:55:08.607Z,1.94
2019-03-29T05:58:22.896Z,1.88
2019-03-29T06:01:37.294Z,1.86
2019-03-29T06:04:51.711Z,1.78
2019-03-29T06:08:05.720Z,1.85
2019-03-29T06:11:19.706Z,1.98
2019-03-29T06:14:34.362Z,2.04
2019-03-29T06:17:49.258Z,2.13
2019-03-29T06:21:03.905Z,2.18
2019-03-29T06:24:18.536Z,2.19
2019-03-29T06:27:32.866Z,2.17
2019-03-29T06:30:47.350Z,2.23
2019-03-29T06:34:01.850Z,2.21
2019-03-29T06:37:17.649Z,2.34
2019-03-29T06:40:31.682Z,2.44
2019-03-29T06:43:46.021Z,2.59
2019-03-29T06:47:00.332Z,2.74
2019-03-29T06:50:14.475Z,2.89
2019-03-29T06:53:28.758Z,3.00
2019-03-29T06:56:43.183Z,3.11
2019-03-29T06:59:57.522Z,3.22
2019-03-29T07:03:11.973Z,3.44
2019-03-29T07:06:26.427Z,3.61
2019-03-29T07:09:40.435Z,3.79
2019-03-29T07:12:56.601Z,4.00
2019-03-29T07:16:10.696Z,4.23
2019-03-29T07:19:25.032Z,4.46
2019-03-29T07:22:39.156Z,4.71
2019-03-29T07:25:56.234Z,4.97
2019-03-29T07:29:10.304Z,5.19
2019-03-29T07:32:24.791Z,5.53
2019-03-29T07:35:39.181Z,5.82
2019-03-29T07:38:53.688Z,6.11
2019-03-29T07:42:08.054Z,6.40
2019-03-29T07:45:22.240Z,6.71
2019-03-29T07:48:40.382Z,7.06
2019-03-29T07:51:55.281Z,7.27
2019-03-29T07:55:10.667Z,7.59
2019-03-29T07:58:26.880Z,7.95
2019-03-29T08:01:43.261Z,8.31
2019-03-29T08:04:59.675Z,8.72
2019-03-29T08:08:24.149Z,8.97
2019-03-29T08:11:46.190Z,9.29
2019-03-29T08:14:53.637Z,9.58
2019-03-29T08:18:07.978Z,9.87
2019-03-29T08:21:22.433Z,10.12
2019-03-29T08:24:36.468Z,10.46
2019-03-29T08:27:50.602Z,10.80
2019-03-29T08:31:04.727Z,11.14
2019-03-29T08:34:19.110Z,11.45
2019-03-29T08:37:33.895Z,11.68
2019-03-29T08:40:48.228Z,11.71
2019-03-29T08:44:02.452Z,12.14
2019-03-29T08:47:16.587Z,12.48
2019-03-29T08:50:32.910Z,12.67
2019-03-29T08:53:46.964Z,12.78
2019-03-29T08:57:00.969Z,12.88
2019-03-29T09:00:22.177Z,13.03
2019-03-29T09:03:36.685Z,13.11
2019-03-29T09:06:53.695Z,13.07
2019-03-29T09:10:17.833Z,13.19
2019-03-29T09:13:32.168Z,13.49
2019-03-29T09:16:46.831Z,13.77
2019-03-29T09:20:00.856Z,14.19
2019-03-29T09:26:42.155Z,14.58
2019-03-29T09:29:56.191Z,14.73
2019-03-29T09:33:10.748Z,14.90
2019-03-29T09:36:25.165Z,14.74
2019-03-29T09:39:39.239Z,15.03
2019-03-29T09:43:06.698Z,15.18
2019-03-29T09:46:09.953Z,14.92
2019-03-29T09:49:24.196Z,14.96
2019-03-29T09:52:38.497Z,15.21
2019-03-29T09:55:53.542Z,15.58
2019-03-29T09:59:08.373Z,15.69
2019-03-29T10:02:22.587Z,15.94
2019-03-29T10:05:37.125Z,16.09
2019-03-29T10:08:53.352Z,16.35
2019-03-29T10:12:07.721Z,15.44
2019-03-29T10:15:22.057Z,15.46
2019-03-29T10:18:36.390Z,15.01
2019-03-29T10:21:51.095Z,14.67
2019-03-29T10:25:18.399Z,15.34
2019-03-29T10:28:21.925Z,15.78
2019-03-29T10:31:36.462Z,15.30
2019-03-29T10:34:51.595Z,16.27
2019-03-29T10:38:05.832Z,17.04
2019-03-29T10:41:22.811Z,17.06
2019-03-29T10:44:36.107Z,16.87
2019-03-29T10:47:50.448Z,16.56
2019-03-29T10:51:08.216Z,16.40
2019-03-29T10:54:21.513Z,17.17
2019-03-29T10:57:36.868Z,17.43
2019-03-29T11:00:51.445Z,17.12
2019-03-29T11:04:05.956Z,16.87
2019-03-29T11:07:20.200Z,17.17
2019-03-29T11:10:35.787Z,18.02
2019-03-29T11:13:50.559Z,18.96
2019-03-29T11:17:05.396Z,19.59
2019-03-29T11:20:20.173Z,19.02
2019-03-29T11:23:34.532Z,18.62
2019-03-29T11:26:50.815Z,18.18
2019-03-29T11:30:09.592Z,17.64
2019-03-29T11:33:25.386Z,17.46
2019-03-29T11:36:42.975Z,18.44
2019-03-29T11:39:58.008Z,18.18
2019-03-29T11:43:26.559Z,17.34
2019-03-29T11:46:34.675Z,17.20
2019-03-29T11:49:52.775Z,17.44
2019-03-29T11:53:08.559Z,17.70
2019-03-29T11:56:22.800Z,17.53
2019-03-29T11:59:40.061Z,18.46
2019-03-29T12:02:53.056Z,18.75
2019-03-29T12:06:07.281Z,18.44
2019-03-29T12:09:21.401Z,18.16
2019-03-29T12:12:35.654Z,17.81
2019-03-29T12:15:49.764Z,18.38
2019-03-29T12:19:03.924Z,18.79
2019-03-29T12:22:18.047Z,18.66
2019-03-29T12:25:32.068Z,19.89
2019-03-29T12:28:46.400Z,21.13
2019-03-29T12:32:00.536Z,21.99
2019-03-29T12:35:14.614Z,22.89
2019-03-29T12:38:28.894Z,23.07
2019-03-29T12:41:42.957Z,22.20
2019-03-29T12:44:58.383Z,21.76
2019-03-29T12:48:12.555Z,21.13
2019-03-29T12:51:26.625Z,21.05
2019-03-29T12:54:40.703Z,21.53
2019-03-29T12:57:54.754Z,21.40
2019-03-29T13:01:09.120Z,21.58
2019-03-29T13:04:23.173Z,21.26
2019-03-29T13:07:37.246Z,21.29
2019-03-29T13:10:52.137Z,21.44
2019-03-29T13:14:10.590Z,21.53
2019-03-29T13:17:22.513Z,20.77
2019-03-29T13:20:36.798Z,19.92
2019-03-29T13:23:50.941Z,19.41
2019-03-29T13:27:04.998Z,19.41
2019-03-29T13:30:19.383Z,19.68
2019-03-29T13:33:34.121Z,20.72
2019-03-29T13:36:49.133Z,21.53
2019-03-29T13:40:05.432Z,21.85
2019-03-29T13:43:19.762Z,21.80
2019-03-29T13:46:34.107Z,21.89
2019-03-29T13:49:48.294Z,21.12
2019-03-29T13:53:02.577Z,20.99
2019-03-29T13:56:16.897Z,21.52
2019-03-29T13:59:31.901Z,22.01
2019-03-29T14:02:46.791Z,22.55
2019-03-29T14:06:01.065Z,22.23
2019-03-29T14:09:15.192Z,22.51
2019-03-29T14:12:29.321Z,22.30
2019-03-29T14:15:43.804Z,22.66
2019-03-29T14:18:58.549Z,23.03
2019-03-29T14:22:13.286Z,22.76
2019-03-29T14:25:27.848Z,22.46
2019-03-29T14:28:42.333Z,22.42
2019-03-29T14:31:56.783Z,22.50
2019-03-29T14:35:11.411Z,22.35
2019-03-29T14:38:26.064Z,22.62
2019-03-29T14:41:40.339Z,22.56
2019-03-29T14:44:54.491Z,22.56
2019-03-29T14:48:08.677Z,22.55
2019-03-29T14:51:22.784Z,22.76
2019-03-29T14:54:37.126Z,22.54
2019-03-29T14:57:51.296Z,21.77
2019-03-29T15:01:05.600Z,22.08
2019-03-29T15:04:20.050Z,22.46
2019-03-29T15:07:37.445Z,22.67
2019-03-29T15:10:52.274Z,23.04
2019-03-29T15:14:06.596Z,22.81
2019-03-29T15:17:21.660Z,23.29
2019-03-29T15:20:36.457Z,22.75
2019-03-29T15:23:51.000Z,22.66
2019-03-29T15:27:06.385Z,22.08
2019-03-29T15:30:20.860Z,21.61
2019-03-29T15:33:34.905Z,21.54
2019-03-29T15:36:49.198Z,21.75
2019-03-29T15:40:03.871Z,22.00
2019-03-29T15:43:18.548Z,21.84
2019-03-29T15:46:33.246Z,21.45
2019-03-29T15:49:55.735Z,21.53
2019-03-29T15:53:04.502Z,21.83
2019-03-29T15:56:18.822Z,21.79
2019-03-29T15:59:33.195Z,21.58
2019-03-29T16:02:47.460Z,21.28
2019-03-29T16:06:02.080Z,21.36
2019-03-29T16:09:16.584Z,21.39
2019-03-29T16:12:30.725Z,21.50
2019-03-29T16:15:44.739Z,21.45
2019-03-29T16:18:58.750Z,21.04
2019-03-29T16:22:13.415Z,20.71
2019-03-29T16:25:27.676Z,20.72
2019-03-29T16:28:41.980Z,20.46
2019-03-29T16:31:55.982Z,20.14
2019-03-29T16:35:10.494Z,19.96
2019-03-29T16:38:24.519Z,19.81
2019-03-29T16:41:38.628Z,19.76
2019-03-29T16:44:52.757Z,19.92
2019-03-29T16:48:07.152Z,19.95
2019-03-29T16:51:21.224Z,19.94
2019-03-29T16:54:35.518Z,19.69
2019-03-29T16:57:49.551Z,19.30
2019-03-29T17:01:04.010Z,19.30
2019-03-29T17:04:18.703Z,19.24
2019-03-29T17:07:33.195Z,19.31
2019-03-29T17:10:47.260Z,19.20
2019-03-29T17:14:01.673Z,19.09
2019-03-29T17:17:16.495Z,18.82
2019-03-29T17:20:30.901Z,18.44
2019-03-29T17:23:45.263Z,17.99
2019-03-29T17:26:59.581Z,17.70
2019-03-29T17:30:16.615Z,17.41
2019-03-29T17:33:31.439Z,16.87
2019-03-29T17:36:45.578Z,16.26
2019-03-29T17:39:59.604Z,15.70
2019-03-29T17:43:14.145Z,15.24
2019-03-29T17:46:28.630Z,14.91
2019-03-29T17:49:42.645Z,14.79
2019-03-29T17:52:56.651Z,14.63
2019-03-29T17:56:11.001Z,14.19
2019-03-29T17:59:25.031Z,13.71
2019-03-29T18:02:39.145Z,13.39
2019-03-29T18:05:53.400Z,13.31
2019-03-29T18:09:07.708Z,13.24
2019-03-29T18:12:21.745Z,13.17
2019-03-29T18:15:35.954Z,13.09
2019-03-29T18:18:50.067Z,12.81
2019-03-29T18:22:04.743Z,12.63
2019-03-29T18:25:19.056Z,12.46
2019-03-29T18:28:33.280Z,12.26
2019-03-29T18:31:47.666Z,12.08
2019-03-29T18:35:02.166Z,11.91
2019-03-29T18:38:16.507Z,11.72
2019-03-29T18:41:31.192Z,11.43
2019-03-29T18:44:45.500Z,10.99
2019-03-29T18:47:59.630Z,10.77
2019-03-29T18:51:13.941Z,10.55
2019-03-29T18:54:28.279Z,10.32
2019-03-29T18:57:42.472Z,10.20
2019-03-29T19:00:56.607Z,9.98
2019-03-29T19:04:10.727Z,9.75
2019-03-29T19:07:28.437Z,9.55
2019-03-29T19:10:42.539Z,9.40
2019-03-29T19:13:56.565Z,9.27
2019-03-29T19:17:10.812Z,9.11
2019-03-29T19:20:27.790Z,8.78
2019-03-29T19:23:40.852Z,8.70
2019-03-29T19:26:55.342Z,8.64
2019-03-29T19:30:10.129Z,8.64
2019-03-29T19:33:24.159Z,8.59
2019-03-29T19:36:38.430Z,8.49
2019-03-29T19:39:53.091Z,8.37
2019-03-29T19:43:07.192Z,8.33
2019-03-29T19:46:21.816Z,8.21
2019-03-29T19:49:36.435Z,8.07
2019-03-29T19:52:50.790Z,7.93
2019-03-29T19:56:05.026Z,7.79
2019-03-29T19:59:19.050Z,7.75
2019-03-29T20:02:33.224Z,7.53
2019-03-29T20:05:50.936Z,7.42
2019-03-29T20:09:07.668Z,7.36
2019-03-29T20:12:25.013Z,7.36
2019-03-29T20:15:38.406Z,7.27
2019-03-29T20:18:52.426Z,7.10
2019-03-29T20:22:06.712Z,6.94
2019-03-29T20:25:20.851Z,6.73
2019-03-29T20:28:35.545Z,6.55
2019-03-29T20:31:50.676Z,6.51
2019-03-29T20:35:05.087Z,6.49
2019-03-29T20:38:19.124Z,6.40
2019-03-29T20:41:33.491Z,6.41
2019-03-29T20:44:47.515Z,6.33
2019-03-29T20:48:01.649Z,6.27
2019-03-29T20:51:15.650Z,6.11
2019-03-29T20:54:30.016Z,6.00
2019-03-29T20:57:44.394Z,5.93
2019-03-29T21:00:58.539Z,5.94
2019-03-29T21:04:12.872Z,5.80
2019-03-29T21:07:27.267Z,5.69
2019-03-29T21:10:54.529Z,5.68
2019-03-29T21:13:57.212Z,5.66
2019-03-29T21:17:11.223Z,5.58
2019-03-29T21:20:25.462Z,5.50
2019-03-29T21:23:40.434Z,5.36
2019-03-29T21:26:55.283Z,5.35
2019-03-29T21:30:10.338Z,5.17
2019-03-29T21:33:24.703Z,5.11
2019-03-29T21:36:39.281Z,5.06
2019-03-29T21:39:53.612Z,4.98
2019-03-29T21:43:08.749Z,4.99
2019-03-29T21:46:23.261Z,5.03
2019-03-29T21:49:38.633Z,5.05
2019-03-29T21:52:52.977Z,4.82
2019-03-29T21:56:07.879Z,4.71
2019-03-29T21:59:25.061Z,4.63
2019-03-29T22:02:38.043Z,4.58
2019-03-29T22:05:52.630Z,4.50
2019-03-29T22:09:09.978Z,4.43
2019-03-29T22:12:24.776Z,4.46
2019-03-29T22:15:38.904Z,4.30
2019-03-29T22:18:52.926Z,4.27
2019-03-29T22:22:08.003Z,4.25
2019-03-29T22:25:22.016Z,4.31
2019-03-29T22:28:36.220Z,4.29
2019-03-29T22:31:50.339Z,4.17
2019-03-29T22:35:05.571Z,4.14
2019-03-29T22:38:19.690Z,4.22
2019-03-29T22:41:34.185Z,4.19
2019-03-29T22:44:48.335Z,4.12
2019-03-29T22:48:02.717Z,4.02
2019-03-29T22:51:17.192Z,4.07
2019-03-29T22:54:31.505Z,4.00
2019-03-29T22:57:45.694Z,3.92
2019-03-29T23:01:01.935Z,3.84
2019-03-29T23:04:15.967Z,3.78
2019-03-29T23:07:29.972Z,3.64
2019-03-29T23:10:44.100Z,3.55
2019-03-29T23:13:58.360Z,3.52
2019-03-29T23:17:12.395Z,3.49
2019-03-29T23:20:26.680Z,3.40
2019-03-29T23:23:41.044Z,3.37
2019-03-29T23:26:55.169Z,3.36
2019-03-29T23:30:09.706Z,3.44
2019-03-29T23:33:23.841Z,3.47
2019-03-29T23:36:38.148Z,3.48
2019-03-29T23:39:52.172Z,3.48
2019-03-29T23:43:06.296Z,3.46
2019-03-29T23:46:20.337Z,3.37
2019-03-29T23:49:34.351Z,3.34
2019-03-29T23:52:48.589Z,3.25
2019-03-29T23:56:02.831Z,3.14
2019-03-29T23:59:17.110Z,3.21
